sensor_id;sensor_type;location;lat;lon;timestamp;P1;durP1;ratioP1;P2;durP2;ratioP2
21166;SDS011;10741;52.272;9.580;2023-05-10T00:00:12;4.13;;;2.50;;
21166;SDS011;10741;52.272;9.580;2023-05-10T00:02:39;6.30;;;2.50;;
21166;SDS011;10741;52.272;9.580;2023-05-10T00:05:05;2.73;;;2.40;;
21166;SDS011;10741;52.272;9.580;2023-05-10T00:07:31;6.17;;;2.50;;
21166;SDS011;10741;52.272;9.580;2023-05-10T00:09:57;4.30;;;2.70;;
21166;SDS011;10741;52.272;9.580;2023-05-10T00:12:23;4.90;;;2.80;;
21166;SDS011;10741;52.272;9.580;2023-05-10T00:14:49;3.83;;;3.00;;
21166;SDS011;10741;52.272;9.580;2023-05-10T00:17:15;4.07;;;2.90;;
21166;SDS011;10741;52.272;9.580;2023-05-10T00:19:40;3.93;;;2.70;;
21166;SDS011;10741;52.272;9.580;2023-05-10T00:22:06;4.70;;;2.60;;
21166;SDS011;10741;52.272;9.580;2023-05-10T00:24:32;3.87;;;2.60;;
21166;SDS011;10741;52.272;9.580;2023-05-10T00:26:58;6.73;;;2.97;;
21166;SDS011;10741;52.272;9.580;2023-05-10T00:29:23;5.23;;;2.30;;
21166;SDS011;10741;52.272;9.580;2023-05-10T00:31:49;6.43;;;2.87;;
21166;SDS011;10741;52.272;9.580;2023-05-10T00:34:15;3.90;;;3.07;;
21166;SDS011;10741;52.272;9.580;2023-05-10T00:36:41;5.20;;;2.63;;
21166;SDS011;10741;52.272;9.580;2023-05-10T00:39:06;4.00;;;2.73;;
21166;SDS011;10741;52.272;9.580;2023-05-10T00:41:32;4.00;;;2.60;;
21166;SDS011;10741;52.272;9.580;2023-05-10T00:43:58;4.97;;;2.60;;
21166;SDS011;10741;52.272;9.580;2023-05-10T00:46:24;5.80;;;2.70;;
21166;SDS011;10741;52.272;9.580;2023-05-10T00:48:50;2.87;;;2.40;;
21166;SDS011;10741;52.272;9.580;2023-05-10T00:51:17;4.43;;;2.50;;
21166;SDS011;10741;52.272;9.580;2023-05-10T00:53:46;7.20;;;2.87;;
21166;SDS011;10741;52.272;9.580;2023-05-10T00:56:13;2.50;;;2.30;;
21166;SDS011;10741;52.272;9.580;2023-05-10T00:58:39;3.73;;;2.60;;
21166;SDS011;10741;52.272;9.580;2023-05-10T01:01:05;3.60;;;2.57;;
21166;SDS011;10741;52.272;9.580;2023-05-10T01:03:32;5.17;;;2.90;;
21166;SDS011;10741;52.272;9.580;2023-05-10T01:05:58;2.67;;;2.47;;
21166;SDS011;10741;52.272;9.580;2023-05-10T01:08:24;4.93;;;2.90;;
21166;SDS011;10741;52.272;9.580;2023-05-10T01:10:50;3.53;;;2.70;;
21166;SDS011;10741;52.272;9.580;2023-05-10T01:13:18;4.30;;;2.30;;
21166;SDS011;10741;52.272;9.580;2023-05-10T01:15:59;4.27;;;2.83;;
21166;SDS011;10741;52.272;9.580;2023-05-10T01:18:27;3.97;;;2.80;;
21166;SDS011;10741;52.272;9.580;2023-05-10T01:35:30;2.80;;;2.50;;
21166;SDS011;10741;52.272;9.580;2023-05-10T01:38:29;7.07;;;3.10;;
21166;SDS011;10741;52.272;9.580;2023-05-10T01:44:09;3.80;;;2.80;;
21166;SDS011;10741;52.272;9.580;2023-05-10T01:46:42;4.33;;;3.00;;
21166;SDS011;10741;52.272;9.580;2023-05-10T01:49:13;6.30;;;3.27;;
21166;SDS011;10741;52.272;9.580;2023-05-10T01:51:50;4.77;;;3.10;;
21166;SDS011;10741;52.272;9.580;2023-05-10T01:54:17;11.00;;;3.30;;
21166;SDS011;10741;52.272;9.580;2023-05-10T01:56:45;9.47;;;3.57;;
21166;SDS011;10741;52.272;9.580;2023-05-10T01:59:16;5.50;;;3.43;;
21166;SDS011;10741;52.272;9.580;2023-05-10T02:01:44;5.83;;;3.57;;
21166;SDS011;10741;52.272;9.580;2023-05-10T02:04:11;3.83;;;3.20;;
21166;SDS011;10741;52.272;9.580;2023-05-10T02:06:41;6.33;;;3.10;;
21166;SDS011;10741;52.272;9.580;2023-05-10T02:09:08;4.33;;;3.27;;
21166;SDS011;10741;52.272;9.580;2023-05-10T02:11:39;3.90;;;3.30;;
21166;SDS011;10741;52.272;9.580;2023-05-10T02:14:07;4.33;;;3.30;;
21166;SDS011;10741;52.272;9.580;2023-05-10T02:16:35;5.63;;;3.53;;
21166;SDS011;10741;52.272;9.580;2023-05-10T02:19:03;8.07;;;3.77;;
21166;SDS011;10741;52.272;9.580;2023-05-10T02:21:29;7.63;;;3.63;;
21166;SDS011;10741;52.272;9.580;2023-05-10T02:23:56;3.60;;;3.30;;
21166;SDS011;10741;52.272;9.580;2023-05-10T02:26:23;5.00;;;3.80;;
21166;SDS011;10741;52.272;9.580;2023-05-10T02:28:51;5.03;;;3.80;;
21166;SDS011;10741;52.272;9.580;2023-05-10T02:31:18;6.90;;;3.40;;
21166;SDS011;10741;52.272;9.580;2023-05-10T02:33:45;3.67;;;3.37;;
21166;SDS011;10741;52.272;9.580;2023-05-10T02:36:12;5.93;;;4.10;;
21166;SDS011;10741;52.272;9.580;2023-05-10T02:38:40;4.07;;;3.50;;
21166;SDS011;10741;52.272;9.580;2023-05-10T02:41:07;6.20;;;3.70;;
21166;SDS011;10741;52.272;9.580;2023-05-10T02:43:34;4.23;;;3.73;;
21166;SDS011;10741;52.272;9.580;2023-05-10T02:46:01;4.97;;;3.80;;
21166;SDS011;10741;52.272;9.580;2023-05-10T02:48:27;4.37;;;3.97;;
21166;SDS011;10741;52.272;9.580;2023-05-10T02:50:54;5.43;;;4.17;;
21166;SDS011;10741;52.272;9.580;2023-05-10T02:53:32;4.83;;;4.30;;
21166;SDS011;10741;52.272;9.580;2023-05-10T02:56:01;3.93;;;3.57;;
21166;SDS011;10741;52.272;9.580;2023-05-10T02:58:33;5.90;;;3.60;;
21166;SDS011;10741;52.272;9.580;2023-05-10T03:00:59;7.63;;;3.53;;
21166;SDS011;10741;52.272;9.580;2023-05-10T03:03:25;4.53;;;3.33;;
21166;SDS011;10741;52.272;9.580;2023-05-10T03:05:51;4.77;;;4.00;;
21166;SDS011;10741;52.272;9.580;2023-05-10T03:08:20;7.20;;;4.30;;
21166;SDS011;10741;52.272;9.580;2023-05-10T03:10:54;5.70;;;3.73;;
21166;SDS011;10741;52.272;9.580;2023-05-10T03:13:44;4.47;;;3.83;;
21166;SDS011;10741;52.272;9.580;2023-05-10T03:16:26;7.97;;;4.03;;
21166;SDS011;10741;52.272;9.580;2023-05-10T03:19:12;3.87;;;3.30;;
21166;SDS011;10741;52.272;9.580;2023-05-10T03:21:47;6.13;;;3.67;;
21166;SDS011;10741;52.272;9.580;2023-05-10T03:24:18;5.67;;;3.60;;
21166;SDS011;10741;52.272;9.580;2023-05-10T03:26:47;4.23;;;3.63;;
21166;SDS011;10741;52.272;9.580;2023-05-10T03:29:15;5.20;;;3.80;;
21166;SDS011;10741;52.272;9.580;2023-05-10T03:31:42;5.43;;;4.00;;
21166;SDS011;10741;52.272;9.580;2023-05-10T03:34:08;5.60;;;3.90;;
21166;SDS011;10741;52.272;9.580;2023-05-10T03:36:33;4.60;;;3.57;;
21166;SDS011;10741;52.272;9.580;2023-05-10T03:39:00;4.27;;;3.57;;
21166;SDS011;10741;52.272;9.580;2023-05-10T03:41:25;9.00;;;4.00;;
21166;SDS011;10741;52.272;9.580;2023-05-10T03:43:51;6.33;;;3.70;;
21166;SDS011;10741;52.272;9.580;2023-05-10T03:46:17;4.43;;;4.00;;
21166;SDS011;10741;52.272;9.580;2023-05-10T03:48:43;5.13;;;3.80;;
21166;SDS011;10741;52.272;9.580;2023-05-10T03:51:08;4.67;;;4.27;;
21166;SDS011;10741;52.272;9.580;2023-05-10T03:53:34;5.30;;;4.27;;
21166;SDS011;10741;52.272;9.580;2023-05-10T03:56:00;11.13;;;4.60;;
21166;SDS011;10741;52.272;9.580;2023-05-10T03:58:26;5.60;;;4.00;;
21166;SDS011;10741;52.272;9.580;2023-05-10T04:00:52;5.40;;;3.83;;
21166;SDS011;10741;52.272;9.580;2023-05-10T04:03:18;6.27;;;4.30;;
21166;SDS011;10741;52.272;9.580;2023-05-10T04:05:45;5.60;;;4.00;;
21166;SDS011;10741;52.272;9.580;2023-05-10T04:08:10;6.30;;;4.43;;
21166;SDS011;10741;52.272;9.580;2023-05-10T04:10:36;5.23;;;4.20;;
21166;SDS011;10741;52.272;9.580;2023-05-10T04:13:02;5.47;;;4.00;;
21166;SDS011;10741;52.272;9.580;2023-05-10T04:15:28;5.17;;;4.60;;
21166;SDS011;10741;52.272;9.580;2023-05-10T04:17:54;5.50;;;3.93;;
21166;SDS011;10741;52.272;9.580;2023-05-10T04:20:19;5.67;;;4.80;;
21166;SDS011;10741;52.272;9.580;2023-05-10T04:22:45;4.73;;;4.10;;
21166;SDS011;10741;52.272;9.580;2023-05-10T04:25:11;5.10;;;4.60;;
21166;SDS011;10741;52.272;9.580;2023-05-10T04:27:36;5.00;;;4.47;;
21166;SDS011;10741;52.272;9.580;2023-05-10T04:30:02;5.03;;;4.07;;
21166;SDS011;10741;52.272;9.580;2023-05-10T04:32:28;5.80;;;4.37;;
21166;SDS011;10741;52.272;9.580;2023-05-10T04:34:54;5.60;;;4.83;;
21166;SDS011;10741;52.272;9.580;2023-05-10T04:37:20;9.57;;;5.33;;
21166;SDS011;10741;52.272;9.580;2023-05-10T04:39:46;5.90;;;5.30;;
21166;SDS011;10741;52.272;9.580;2023-05-10T04:42:12;8.67;;;5.20;;
21166;SDS011;10741;52.272;9.580;2023-05-10T04:44:39;7.83;;;5.40;;
21166;SDS011;10741;52.272;9.580;2023-05-10T04:47:05;6.80;;;5.17;;
21166;SDS011;10741;52.272;9.580;2023-05-10T04:49:31;7.73;;;5.30;;
21166;SDS011;10741;52.272;9.580;2023-05-10T04:51:57;7.83;;;5.93;;
21166;SDS011;10741;52.272;9.580;2023-05-10T04:54:23;6.80;;;5.90;;
21166;SDS011;10741;52.272;9.580;2023-05-10T04:56:49;11.53;;;6.67;;
21166;SDS011;10741;52.272;9.580;2023-05-10T04:59:14;10.30;;;7.53;;
21166;SDS011;10741;52.272;9.580;2023-05-10T05:01:40;13.10;;;7.77;;
21166;SDS011;10741;52.272;9.580;2023-05-10T05:04:06;9.40;;;7.13;;
21166;SDS011;10741;52.272;9.580;2023-05-10T05:06:31;8.20;;;7.07;;
21166;SDS011;10741;52.272;9.580;2023-05-10T05:08:57;9.97;;;7.37;;
21166;SDS011;10741;52.272;9.580;2023-05-10T05:11:23;9.63;;;8.30;;
21166;SDS011;10741;52.272;9.580;2023-05-10T05:13:50;12.00;;;8.30;;
21166;SDS011;10741;52.272;9.580;2023-05-10T05:16:16;11.17;;;8.53;;
21166;SDS011;10741;52.272;9.580;2023-05-10T05:18:42;11.23;;;8.77;;
21166;SDS011;10741;52.272;9.580;2023-05-10T05:21:17;9.07;;;8.17;;
21166;SDS011;10741;52.272;9.580;2023-05-10T05:23:43;10.13;;;8.30;;
21166;SDS011;10741;52.272;9.580;2023-05-10T05:26:09;8.43;;;7.40;;
21166;SDS011;10741;52.272;9.580;2023-05-10T05:28:35;9.33;;;7.97;;
21166;SDS011;10741;52.272;9.580;2023-05-10T05:31:05;10.80;;;8.53;;
21166;SDS011;10741;52.272;9.580;2023-05-10T05:33:32;8.33;;;7.43;;
21166;SDS011;10741;52.272;9.580;2023-05-10T05:36:04;8.67;;;7.50;;
21166;SDS011;10741;52.272;9.580;2023-05-10T05:38:30;9.00;;;7.90;;
21166;SDS011;10741;52.272;9.580;2023-05-10T05:40:56;9.67;;;8.47;;
21166;SDS011;10741;52.272;9.580;2023-05-10T05:43:22;9.90;;;8.07;;
21166;SDS011;10741;52.272;9.580;2023-05-10T05:45:48;11.00;;;8.80;;
21166;SDS011;10741;52.272;9.580;2023-05-10T05:48:14;11.97;;;9.10;;
21166;SDS011;10741;52.272;9.580;2023-05-10T05:50:40;11.83;;;9.43;;
21166;SDS011;10741;52.272;9.580;2023-05-10T05:53:05;14.33;;;9.37;;
21166;SDS011;10741;52.272;9.580;2023-05-10T05:55:31;12.83;;;9.50;;
21166;SDS011;10741;52.272;9.580;2023-05-10T05:57:57;13.50;;;9.40;;
21166;SDS011;10741;52.272;9.580;2023-05-10T06:00:23;12.77;;;9.00;;
21166;SDS011;10741;52.272;9.580;2023-05-10T06:02:49;15.30;;;9.90;;
21166;SDS011;10741;52.272;9.580;2023-05-10T06:05:15;12.13;;;9.17;;
21166;SDS011;10741;52.272;9.580;2023-05-10T06:07:40;12.53;;;10.00;;
21166;SDS011;10741;52.272;9.580;2023-05-10T06:10:09;12.20;;;9.77;;
21166;SDS011;10741;52.272;9.580;2023-05-10T06:12:35;12.17;;;9.63;;
21166;SDS011;10741;52.272;9.580;2023-05-10T06:15:01;12.13;;;9.90;;
21166;SDS011;10741;52.272;9.580;2023-05-10T06:17:27;12.07;;;9.53;;
21166;SDS011;10741;52.272;9.580;2023-05-10T06:19:53;12.03;;;9.53;;
21166;SDS011;10741;52.272;9.580;2023-05-10T06:22:19;12.17;;;9.17;;
21166;SDS011;10741;52.272;9.580;2023-05-10T06:24:46;10.83;;;9.10;;
21166;SDS011;10741;52.272;9.580;2023-05-10T06:27:12;11.10;;;8.97;;
21166;SDS011;10741;52.272;9.580;2023-05-10T06:29:38;11.17;;;9.07;;
21166;SDS011;10741;52.272;9.580;2023-05-10T06:32:04;11.10;;;8.77;;
21166;SDS011;10741;52.272;9.580;2023-05-10T06:34:29;11.60;;;9.60;;
21166;SDS011;10741;52.272;9.580;2023-05-10T06:36:55;12.73;;;9.30;;
21166;SDS011;10741;52.272;9.580;2023-05-10T06:39:21;10.40;;;8.57;;
21166;SDS011;10741;52.272;9.580;2023-05-10T06:41:47;11.17;;;9.23;;
21166;SDS011;10741;52.272;9.580;2023-05-10T06:44:13;9.37;;;7.90;;
21166;SDS011;10741;52.272;9.580;2023-05-10T06:46:38;9.33;;;8.20;;
21166;SDS011;10741;52.272;9.580;2023-05-10T06:49:04;10.13;;;8.57;;
21166;SDS011;10741;52.272;9.580;2023-05-10T06:51:30;9.37;;;8.43;;
21166;SDS011;10741;52.272;9.580;2023-05-10T06:53:56;11.40;;;8.60;;
21166;SDS011;10741;52.272;9.580;2023-05-10T06:56:21;8.63;;;7.73;;
21166;SDS011;10741;52.272;9.580;2023-05-10T06:58:47;11.20;;;8.10;;
21166;SDS011;10741;52.272;9.580;2023-05-10T07:01:14;10.67;;;8.00;;
21166;SDS011;10741;52.272;9.580;2023-05-10T07:03:40;9.30;;;8.30;;
21166;SDS011;10741;52.272;9.580;2023-05-10T07:06:05;9.70;;;8.70;;
21166;SDS011;10741;52.272;9.580;2023-05-10T07:08:32;10.63;;;8.53;;
21166;SDS011;10741;52.272;9.580;2023-05-10T07:11:02;11.17;;;8.50;;
21166;SDS011;10741;52.272;9.580;2023-05-10T07:13:29;10.87;;;8.43;;
21166;SDS011;10741;52.272;9.580;2023-05-10T07:15:56;11.17;;;8.77;;
21166;SDS011;10741;52.272;9.580;2023-05-10T07:18:23;10.50;;;9.00;;
21166;SDS011;10741;52.272;9.580;2023-05-10T07:20:49;10.57;;;9.10;;
21166;SDS011;10741;52.272;9.580;2023-05-10T07:23:14;9.17;;;8.20;;
21166;SDS011;10741;52.272;9.580;2023-05-10T07:25:40;9.27;;;8.13;;
21166;SDS011;10741;52.272;9.580;2023-05-10T07:28:06;8.90;;;7.17;;
21166;SDS011;10741;52.272;9.580;2023-05-10T07:30:32;4.87;;;4.37;;
21166;SDS011;10741;52.272;9.580;2023-05-10T07:32:57;1.93;;;1.83;;
21166;SDS011;10741;52.272;9.580;2023-05-10T07:35:24;2.00;;;1.80;;
21166;SDS011;10741;52.272;9.580;2023-05-10T07:37:49;2.27;;;1.43;;
21166;SDS011;10741;52.272;9.580;2023-05-10T07:40:15;2.07;;;1.20;;
21166;SDS011;10741;52.272;9.580;2023-05-10T07:42:41;1.17;;;1.07;;
21166;SDS011;10741;52.272;9.580;2023-05-10T07:45:07;0.90;;;0.90;;
21166;SDS011;10741;52.272;9.580;2023-05-10T07:47:33;1.17;;;0.80;;
21166;SDS011;10741;52.272;9.580;2023-05-10T07:49:59;0.93;;;0.80;;
21166;SDS011;10741;52.272;9.580;2023-05-10T07:52:25;0.70;;;0.70;;
21166;SDS011;10741;52.272;9.580;2023-05-10T07:54:51;0.70;;;0.70;;
21166;SDS011;10741;52.272;9.580;2023-05-10T07:57:17;1.37;;;0.90;;
21166;SDS011;10741;52.272;9.580;2023-05-10T07:59:43;1.50;;;0.63;;
21166;SDS011;10741;52.272;9.580;2023-05-10T08:02:10;0.80;;;0.80;;
21166;SDS011;10741;52.272;9.580;2023-05-10T08:04:35;0.83;;;0.83;;
21166;SDS011;10741;52.272;9.580;2023-05-10T08:07:01;1.87;;;1.00;;
21166;SDS011;10741;52.272;9.580;2023-05-10T08:09:27;0.80;;;0.80;;
21166;SDS011;10741;52.272;9.580;2023-05-10T08:11:53;1.37;;;0.70;;
21166;SDS011;10741;52.272;9.580;2023-05-10T08:14:18;0.80;;;0.80;;
21166;SDS011;10741;52.272;9.580;2023-05-10T08:16:44;0.83;;;0.80;;
21166;SDS011;10741;52.272;9.580;2023-05-10T08:19:10;1.07;;;0.73;;
21166;SDS011;10741;52.272;9.580;2023-05-10T08:21:36;0.90;;;0.80;;
21166;SDS011;10741;52.272;9.580;2023-05-10T08:24:02;1.97;;;0.70;;
21166;SDS011;10741;52.272;9.580;2023-05-10T08:26:28;1.10;;;0.73;;
21166;SDS011;10741;52.272;9.580;2023-05-10T08:28:53;0.60;;;0.60;;
21166;SDS011;10741;52.272;9.580;2023-05-10T08:31:19;0.50;;;0.50;;
21166;SDS011;10741;52.272;9.580;2023-05-10T08:33:45;0.60;;;0.60;;
21166;SDS011;10741;52.272;9.580;2023-05-10T08:36:10;1.90;;;0.80;;
21166;SDS011;10741;52.272;9.580;2023-05-10T08:38:39;0.77;;;0.60;;
21166;SDS011;10741;52.272;9.580;2023-05-10T08:41:04;1.30;;;0.80;;
21166;SDS011;10741;52.272;9.580;2023-05-10T08:43:30;1.20;;;0.60;;
21166;SDS011;10741;52.272;9.580;2023-05-10T08:45:58;0.80;;;0.60;;
21166;SDS011;10741;52.272;9.580;2023-05-10T08:48:27;2.57;;;0.70;;
21166;SDS011;10741;52.272;9.580;2023-05-10T08:50:54;1.43;;;0.70;;
21166;SDS011;10741;52.272;9.580;2023-05-10T08:53:23;1.63;;;0.60;;
21166;SDS011;10741;52.272;9.580;2023-05-10T08:55:52;1.53;;;0.70;;
21166;SDS011;10741;52.272;9.580;2023-05-10T08:58:18;0.77;;;0.63;;
21166;SDS011;10741;52.272;9.580;2023-05-10T09:00:45;2.07;;;1.00;;
21166;SDS011;10741;52.272;9.580;2023-05-10T09:03:12;0.90;;;0.73;;
21166;SDS011;10741;52.272;9.580;2023-05-10T09:05:38;0.93;;;0.73;;
21166;SDS011;10741;52.272;9.580;2023-05-10T09:08:04;1.13;;;0.80;;
21166;SDS011;10741;52.272;9.580;2023-05-10T09:10:31;0.93;;;0.93;;
21166;SDS011;10741;52.272;9.580;2023-05-10T09:12:57;1.13;;;0.70;;
21166;SDS011;10741;52.272;9.580;2023-05-10T09:15:23;0.80;;;0.77;;
21166;SDS011;10741;52.272;9.580;2023-05-10T09:17:49;1.17;;;0.93;;
21166;SDS011;10741;52.272;9.580;2023-05-10T09:20:15;1.33;;;1.10;;
21166;SDS011;10741;52.272;9.580;2023-05-10T09:22:42;0.83;;;0.83;;
21166;SDS011;10741;52.272;9.580;2023-05-10T09:27:43;1.23;;;1.13;;
21166;SDS011;10741;52.272;9.580;2023-05-10T09:30:11;1.80;;;1.10;;
21166;SDS011;10741;52.272;9.580;2023-05-10T09:32:50;1.13;;;1.03;;
21166;SDS011;10741;52.272;9.580;2023-05-10T09:35:17;1.70;;;1.10;;
21166;SDS011;10741;52.272;9.580;2023-05-10T09:37:48;1.40;;;1.30;;
21166;SDS011;10741;52.272;9.580;2023-05-10T09:40:16;1.33;;;1.20;;
21166;SDS011;10741;52.272;9.580;2023-05-10T09:45:22;1.57;;;1.47;;
21166;SDS011;10741;52.272;9.580;2023-05-10T09:47:49;2.40;;;1.30;;
21166;SDS011;10741;52.272;9.580;2023-05-10T09:50:14;2.00;;;1.60;;
21166;SDS011;10741;52.272;9.580;2023-05-10T09:52:59;2.93;;;2.00;;
21166;SDS011;10741;52.272;9.580;2023-05-10T09:58:09;2.40;;;2.00;;
21166;SDS011;10741;52.272;9.580;2023-05-10T10:00:36;4.20;;;2.10;;
21166;SDS011;10741;52.272;9.580;2023-05-10T10:03:04;4.43;;;2.47;;
21166;SDS011;10741;52.272;9.580;2023-05-10T10:05:30;3.90;;;2.53;;
21166;SDS011;10741;52.272;9.580;2023-05-10T10:07:57;3.27;;;2.60;;
21166;SDS011;10741;52.272;9.580;2023-05-10T10:10:24;3.43;;;2.33;;
21166;SDS011;10741;52.272;9.580;2023-05-10T10:12:51;3.17;;;2.70;;
21166;SDS011;10741;52.272;9.580;2023-05-10T10:15:17;4.00;;;3.07;;
21166;SDS011;10741;52.272;9.580;2023-05-10T10:17:43;4.00;;;3.00;;
21166;SDS011;10741;52.272;9.580;2023-05-10T10:20:10;5.40;;;3.40;;
21166;SDS011;10741;52.272;9.580;2023-05-10T10:22:36;4.93;;;3.10;;
21166;SDS011;10741;52.272;9.580;2023-05-10T10:25:03;3.97;;;2.97;;
21166;SDS011;10741;52.272;9.580;2023-05-10T10:27:39;6.77;;;3.10;;
21166;SDS011;10741;52.272;9.580;2023-05-10T10:35:46;4.30;;;3.33;;
21166;SDS011;10741;52.272;9.580;2023-05-10T10:38:12;5.33;;;3.30;;
21166;SDS011;10741;52.272;9.580;2023-05-10T10:40:38;4.40;;;3.10;;
21166;SDS011;10741;52.272;9.580;2023-05-10T10:48:47;4.63;;;3.50;;
21166;SDS011;10741;52.272;9.580;2023-05-10T10:51:13;5.10;;;3.60;;
21166;SDS011;10741;52.272;9.580;2023-05-10T10:53:39;5.23;;;3.70;;
21166;SDS011;10741;52.272;9.580;2023-05-10T10:56:06;3.87;;;3.10;;
21166;SDS011;10741;52.272;9.580;2023-05-10T10:58:34;6.80;;;3.80;;
21166;SDS011;10741;52.272;9.580;2023-05-10T11:03:37;4.73;;;3.87;;
21166;SDS011;10741;52.272;9.580;2023-05-10T11:06:03;3.80;;;3.20;;
21166;SDS011;10741;52.272;9.580;2023-05-10T11:08:32;3.93;;;3.53;;
21166;SDS011;10741;52.272;9.580;2023-05-10T11:13:29;5.37;;;3.50;;
21166;SDS011;10741;52.272;9.580;2023-05-10T11:15:56;5.43;;;3.43;;
21166;SDS011;10741;52.272;9.580;2023-05-10T11:18:26;3.30;;;3.00;;
21166;SDS011;10741;52.272;9.580;2023-05-10T11:21:00;4.60;;;3.30;;
21166;SDS011;10741;52.272;9.580;2023-05-10T11:26:11;4.13;;;3.60;;
21166;SDS011;10741;52.272;9.580;2023-05-10T11:28:41;5.90;;;3.37;;
21166;SDS011;10741;52.272;9.580;2023-05-10T11:31:18;5.37;;;3.83;;
21166;SDS011;10741;52.272;9.580;2023-05-10T11:33:49;5.57;;;3.63;;
21166;SDS011;10741;52.272;9.580;2023-05-10T11:36:20;4.87;;;3.73;;
21166;SDS011;10741;52.272;9.580;2023-05-10T11:38:48;7.30;;;5.20;;
21166;SDS011;10741;52.272;9.580;2023-05-10T11:41:15;4.90;;;3.80;;
21166;SDS011;10741;52.272;9.580;2023-05-10T11:43:43;4.20;;;3.77;;
21166;SDS011;10741;52.272;9.580;2023-05-10T11:46:14;7.10;;;3.90;;
21166;SDS011;10741;52.272;9.580;2023-05-10T11:48:43;4.03;;;3.67;;
21166;SDS011;10741;52.272;9.580;2023-05-10T11:51:09;5.63;;;4.20;;
21166;SDS011;10741;52.272;9.580;2023-05-10T11:53:36;7.03;;;4.67;;
21166;SDS011;10741;52.272;9.580;2023-05-10T11:56:06;5.67;;;3.60;;
21166;SDS011;10741;52.272;9.580;2023-05-10T11:58:33;6.30;;;4.07;;
21166;SDS011;10741;52.272;9.580;2023-05-10T12:00:59;6.13;;;3.97;;
21166;SDS011;10741;52.272;9.580;2023-05-10T12:03:26;3.73;;;3.30;;
21166;SDS011;10741;52.272;9.580;2023-05-10T12:05:53;4.90;;;3.77;;
21166;SDS011;10741;52.272;9.580;2023-05-10T12:08:20;5.93;;;3.60;;
21166;SDS011;10741;52.272;9.580;2023-05-10T12:10:47;3.70;;;3.17;;
21166;SDS011;10741;52.272;9.580;2023-05-10T12:13:13;5.97;;;4.30;;
21166;SDS011;10741;52.272;9.580;2023-05-10T12:15:40;4.20;;;3.50;;
21166;SDS011;10741;52.272;9.580;2023-05-10T12:18:13;3.60;;;3.10;;
21166;SDS011;10741;52.272;9.580;2023-05-10T12:20:39;4.00;;;3.43;;
21166;SDS011;10741;52.272;9.580;2023-05-10T12:23:08;4.53;;;4.10;;
21166;SDS011;10741;52.272;9.580;2023-05-10T12:25:36;6.20;;;4.63;;
21166;SDS011;10741;52.272;9.580;2023-05-10T12:28:03;5.30;;;4.10;;
21166;SDS011;10741;52.272;9.580;2023-05-10T12:30:30;4.50;;;3.40;;
21166;SDS011;10741;52.272;9.580;2023-05-10T12:33:10;6.97;;;4.87;;
21166;SDS011;10741;52.272;9.580;2023-05-10T12:35:47;4.03;;;3.63;;
21166;SDS011;10741;52.272;9.580;2023-05-10T12:40:53;4.97;;;4.30;;
21166;SDS011;10741;52.272;9.580;2023-05-10T12:43:19;5.63;;;4.93;;
21166;SDS011;10741;52.272;9.580;2023-05-10T12:45:45;4.70;;;4.07;;
21166;SDS011;10741;52.272;9.580;2023-05-10T12:48:13;6.63;;;4.33;;
21166;SDS011;10741;52.272;9.580;2023-05-10T12:50:40;5.50;;;4.00;;
21166;SDS011;10741;52.272;9.580;2023-05-10T12:53:06;6.07;;;4.40;;
21166;SDS011;10741;52.272;9.580;2023-05-10T12:55:31;5.77;;;4.70;;
21166;SDS011;10741;52.272;9.580;2023-05-10T12:57:57;5.50;;;4.57;;
21166;SDS011;10741;52.272;9.580;2023-05-10T13:00:23;6.47;;;3.80;;
21166;SDS011;10741;52.272;9.580;2023-05-10T13:02:49;4.83;;;4.27;;
21166;SDS011;10741;52.272;9.580;2023-05-10T13:05:14;5.20;;;3.60;;
21166;SDS011;10741;52.272;9.580;2023-05-10T13:07:40;5.00;;;3.53;;
21166;SDS011;10741;52.272;9.580;2023-05-10T13:10:06;6.17;;;3.30;;
21166;SDS011;10741;52.272;9.580;2023-05-10T13:12:32;5.07;;;3.87;;
21166;SDS011;10741;52.272;9.580;2023-05-10T13:14:58;3.77;;;3.10;;
21166;SDS011;10741;52.272;9.580;2023-05-10T13:17:25;5.70;;;3.23;;
21166;SDS011;10741;52.272;9.580;2023-05-10T13:19:51;5.43;;;3.13;;
21166;SDS011;10741;52.272;9.580;2023-05-10T13:22:16;4.47;;;3.53;;
21166;SDS011;10741;52.272;9.580;2023-05-10T13:24:42;3.77;;;2.97;;
21166;SDS011;10741;52.272;9.580;2023-05-10T13:27:08;4.70;;;3.17;;
21166;SDS011;10741;52.272;9.580;2023-05-10T13:29:34;4.20;;;2.97;;
21166;SDS011;10741;52.272;9.580;2023-05-10T13:31:59;4.33;;;3.20;;
21166;SDS011;10741;52.272;9.580;2023-05-10T13:34:26;3.20;;;2.90;;
21166;SDS011;10741;52.272;9.580;2023-05-10T13:36:52;6.30;;;3.70;;
21166;SDS011;10741;52.272;9.580;2023-05-10T13:39:18;4.77;;;3.63;;
21166;SDS011;10741;52.272;9.580;2023-05-10T13:41:45;3.77;;;3.17;;
21166;SDS011;10741;52.272;9.580;2023-05-10T13:44:14;4.20;;;3.80;;
21166;SDS011;10741;52.272;9.580;2023-05-10T13:46:40;4.13;;;3.07;;
21166;SDS011;10741;52.272;9.580;2023-05-10T13:49:08;5.53;;;3.50;;
21166;SDS011;10741;52.272;9.580;2023-05-10T13:51:34;4.37;;;3.60;;
21166;SDS011;10741;52.272;9.580;2023-05-10T13:54:01;4.47;;;3.07;;
21166;SDS011;10741;52.272;9.580;2023-05-10T13:56:27;4.97;;;3.80;;
21166;SDS011;10741;52.272;9.580;2023-05-10T13:58:53;5.50;;;4.07;;
21166;SDS011;10741;52.272;9.580;2023-05-10T14:01:19;8.50;;;3.80;;
21166;SDS011;10741;52.272;9.580;2023-05-10T14:03:44;5.67;;;3.77;;
21166;SDS011;10741;52.272;9.580;2023-05-10T14:06:10;6.43;;;4.37;;
21166;SDS011;10741;52.272;9.580;2023-05-10T14:08:36;6.67;;;4.83;;
21166;SDS011;10741;52.272;9.580;2023-05-10T14:11:02;5.40;;;4.70;;
21166;SDS011;10741;52.272;9.580;2023-05-10T14:13:28;5.70;;;5.00;;
21166;SDS011;10741;52.272;9.580;2023-05-10T14:15:54;5.97;;;4.63;;
21166;SDS011;10741;52.272;9.580;2023-05-10T14:18:20;5.77;;;4.33;;
21166;SDS011;10741;52.272;9.580;2023-05-10T14:20:46;5.20;;;4.47;;
21166;SDS011;10741;52.272;9.580;2023-05-10T14:23:11;4.07;;;3.63;;
21166;SDS011;10741;52.272;9.580;2023-05-10T14:25:39;4.33;;;3.93;;
21166;SDS011;10741;52.272;9.580;2023-05-10T14:28:06;7.30;;;4.27;;
21166;SDS011;10741;52.272;9.580;2023-05-10T14:30:31;10.23;;;7.33;;
21166;SDS011;10741;52.272;9.580;2023-05-10T14:32:59;11.03;;;7.90;;
21166;SDS011;10741;52.272;9.580;2023-05-10T14:35:27;9.70;;;8.70;;
21166;SDS011;10741;52.272;9.580;2023-05-10T14:37:55;10.17;;;8.37;;
21166;SDS011;10741;52.272;9.580;2023-05-10T14:40:21;11.93;;;8.37;;
21166;SDS011;10741;52.272;9.580;2023-05-10T14:42:47;10.30;;;8.53;;
21166;SDS011;10741;52.272;9.580;2023-05-10T14:45:13;9.40;;;8.00;;
21166;SDS011;10741;52.272;9.580;2023-05-10T14:47:39;13.57;;;8.87;;
21166;SDS011;10741;52.272;9.580;2023-05-10T14:50:05;10.83;;;8.30;;
21166;SDS011;10741;52.272;9.580;2023-05-10T14:52:31;10.47;;;8.07;;
21166;SDS011;10741;52.272;9.580;2023-05-10T14:54:57;10.73;;;7.93;;
21166;SDS011;10741;52.272;9.580;2023-05-10T14:57:24;11.83;;;9.03;;
21166;SDS011;10741;52.272;9.580;2023-05-10T14:59:49;10.87;;;7.43;;
21166;SDS011;10741;52.272;9.580;2023-05-10T15:02:15;9.37;;;8.20;;
21166;SDS011;10741;52.272;9.580;2023-05-10T15:04:41;10.47;;;7.30;;
21166;SDS011;10741;52.272;9.580;2023-05-10T15:07:06;11.60;;;7.43;;
21166;SDS011;10741;52.272;9.580;2023-05-10T15:09:32;10.73;;;9.60;;
21166;SDS011;10741;52.272;9.580;2023-05-10T15:11:58;25.30;;;13.43;;
21166;SDS011;10741;52.272;9.580;2023-05-10T15:14:24;24.23;;;14.47;;
21166;SDS011;10741;52.272;9.580;2023-05-10T15:16:49;28.63;;;16.20;;
21166;SDS011;10741;52.272;9.580;2023-05-10T15:19:15;22.83;;;16.00;;
21166;SDS011;10741;52.272;9.580;2023-05-10T15:21:41;20.53;;;16.43;;
21166;SDS011;10741;52.272;9.580;2023-05-10T15:24:09;23.97;;;17.23;;
21166;SDS011;10741;52.272;9.580;2023-05-10T15:26:35;28.23;;;18.20;;
21166;SDS011;10741;52.272;9.580;2023-05-10T15:29:00;31.70;;;18.50;;
21166;SDS011;10741;52.272;9.580;2023-05-10T15:31:26;29.47;;;18.07;;